sensor_id;sensor_type;location;lat;lon;timestamp;temperature;humidity
37754;DHT22;23596;52.520;13.464;2022-09-17T00:01:37;11.40;99.90
37754;DHT22;23596;52.520;13.464;2022-09-17T00:04:03;11.40;99.90
37754;DHT22;23596;52.520;13.464;2022-09-17T00:06:30;11.40;99.90
37754;DHT22;23596;52.520;13.464;2022-09-17T00:08:56;11.40;99.90
37754;DHT22;23596;52.520;13.464;2022-09-17T00:11:29;11.40;99.90
37754;DHT22;23596;52.520;13.464;2022-09-17T00:13:56;11.50;99.90
37754;DHT22;23596;52.520;13.464;2022-09-17T00:16:33;11.50;99.90
37754;DHT22;23596;52.520;13.464;2022-09-17T00:19:00;11.50;99.90
37754;DHT22;23596;52.520;13.464;2022-09-17T00:21:27;11.50;99.90
37754;DHT22;23596;52.520;13.464;2022-09-17T00:23:55;11.50;99.90
37754;DHT22;23596;52.520;13.464;2022-09-17T00:26:20;11.50;99.90
37754;DHT22;23596;52.520;13.464;2022-09-17T00:28:54;11.50;99.90
37754;DHT22;23596;52.520;13.464;2022-09-17T00:31:21;11.60;99.90
37754;DHT22;23596;52.520;13.464;2022-09-17T00:33:47;11.60;99.90
37754;DHT22;23596;52.520;13.464;2022-09-17T00:36:12;11.60;99.90
37754;DHT22;23596;52.520;13.464;2022-09-17T00:38:38;11.60;99.90
37754;DHT22;23596;52.520;13.464;2022-09-17T00:41:05;11.60;99.90
37754;DHT22;23596;52.520;13.464;2022-09-17T00:43:35;11.60;99.90
37754;DHT22;23596;52.520;13.464;2022-09-17T00:46:02;11.60;99.90
37754;DHT22;23596;52.520;13.464;2022-09-17T00:48:29;11.60;99.90
37754;DHT22;23596;52.520;13.464;2022-09-17T00:50:55;11.60;99.90
37754;DHT22;23596;52.520;13.464;2022-09-17T00:53:22;11.70;99.90
37754;DHT22;23596;52.520;13.464;2022-09-17T00:56:03;11.60;99.90
37754;DHT22;23596;52.520;13.464;2022-09-17T00:58:31;11.60;99.90
37754;DHT22;23596;52.520;13.464;2022-09-17T01:00:58;11.60;99.90
37754;DHT22;23596;52.520;13.464;2022-09-17T01:03:24;11.60;99.90
37754;DHT22;23596;52.520;13.464;2022-09-17T01:06:06;11.60;99.90
37754;DHT22;23596;52.520;13.464;2022-09-17T01:14:19;11.70;99.90
37754;DHT22;23596;52.520;13.464;2022-09-17T01:22:33;11.70;99.90
37754;DHT22;23596;52.520;13.464;2022-09-17T01:25:19;11.70;99.90
37754;DHT22;23596;52.520;13.464;2022-09-17T01:41:50;11.70;99.90
37754;DHT22;23596;52.520;13.464;2022-09-17T01:44:34;11.80;99.90
37754;DHT22;23596;52.520;13.464;2022-09-17T01:47:22;11.80;99.90
37754;DHT22;23596;52.520;13.464;2022-09-17T01:49:50;11.80;99.90
37754;DHT22;23596;52.520;13.464;2022-09-17T01:52:18;11.80;99.90
37754;DHT22;23596;52.520;13.464;2022-09-17T01:54:46;11.90;99.90
37754;DHT22;23596;52.520;13.464;2022-09-17T01:57:31;11.80;99.90
37754;DHT22;23596;52.520;13.464;2022-09-17T02:00:12;11.90;99.90
37754;DHT22;23596;52.520;13.464;2022-09-17T02:02:55;11.80;99.90
37754;DHT22;23596;52.520;13.464;2022-09-17T02:08:25;11.90;99.90
37754;DHT22;23596;52.520;13.464;2022-09-17T02:10:57;11.90;99.90
37754;DHT22;23596;52.520;13.464;2022-09-17T02:13:30;11.90;99.90
37754;DHT22;23596;52.520;13.464;2022-09-17T02:16:08;11.90;99.90
37754;DHT22;23596;52.520;13.464;2022-09-17T02:21:38;12.00;99.90
37754;DHT22;23596;52.520;13.464;2022-09-17T02:24:24;11.90;99.90
37754;DHT22;23596;52.520;13.464;2022-09-17T02:27:02;11.90;99.90
37754;DHT22;23596;52.520;13.464;2022-09-17T02:29:41;11.90;99.90
37754;DHT22;23596;52.520;13.464;2022-09-17T02:32:08;11.90;99.90
37754;DHT22;23596;52.520;13.464;2022-09-17T02:34:33;11.90;99.90
37754;DHT22;23596;52.520;13.464;2022-09-17T02:37:00;11.90;99.90
37754;DHT22;23596;52.520;13.464;2022-09-17T02:39:26;11.90;99.90
37754;DHT22;23596;52.520;13.464;2022-09-17T02:55:47;12.00;99.90
37754;DHT22;23596;52.520;13.464;2022-09-17T02:58:21;12.00;99.90
37754;DHT22;23596;52.520;13.464;2022-09-17T03:00:51;12.00;99.90
37754;DHT22;23596;52.520;13.464;2022-09-17T03:03:26;12.00;99.90
37754;DHT22;23596;52.520;13.464;2022-09-17T03:05:54;12.00;99.90
37754;DHT22;23596;52.520;13.464;2022-09-17T03:08:28;12.00;99.90
37754;DHT22;23596;52.520;13.464;2022-09-17T03:10:55;12.00;99.90
37754;DHT22;23596;52.520;13.464;2022-09-17T03:13:20;12.00;99.90
37754;DHT22;23596;52.520;13.464;2022-09-17T03:15:46;12.00;99.90
37754;DHT22;23596;52.520;13.464;2022-09-17T03:18:11;12.00;99.90
37754;DHT22;23596;52.520;13.464;2022-09-17T03:20:37;12.00;99.90
37754;DHT22;23596;52.520;13.464;2022-09-17T03:23:03;12.00;99.90
37754;DHT22;23596;52.520;13.464;2022-09-17T03:25:28;12.00;99.90
37754;DHT22;23596;52.520;13.464;2022-09-17T03:27:54;12.00;99.90
37754;DHT22;23596;52.520;13.464;2022-09-17T03:30:19;12.30;99.90
37754;DHT22;23596;52.520;13.464;2022-09-17T03:32:45;12.00;99.90
37754;DHT22;23596;52.520;13.464;2022-09-17T03:35:11;12.00;99.90
37754;DHT22;23596;52.520;13.464;2022-09-17T03:37:36;12.00;99.90
37754;DHT22;23596;52.520;13.464;2022-09-17T03:40:02;12.00;99.90
37754;DHT22;23596;52.520;13.464;2022-09-17T03:42:28;12.00;99.90
37754;DHT22;23596;52.520;13.464;2022-09-17T03:44:54;12.00;99.90
37754;DHT22;23596;52.520;13.464;2022-09-17T03:47:21;12.00;99.90
37754;DHT22;23596;52.520;13.464;2022-09-17T03:49:47;12.20;99.90
37754;DHT22;23596;52.520;13.464;2022-09-17T03:52:12;12.00;99.90
37754;DHT22;23596;52.520;13.464;2022-09-17T03:54:38;12.00;99.90
37754;DHT22;23596;52.520;13.464;2022-09-17T03:57:04;11.90;99.90
37754;DHT22;23596;52.520;13.464;2022-09-17T03:59:29;12.00;99.90
37754;DHT22;23596;52.520;13.464;2022-09-17T04:01:55;11.90;99.90
37754;DHT22;23596;52.520;13.464;2022-09-17T04:04:22;11.90;99.90
37754;DHT22;23596;52.520;13.464;2022-09-17T04:06:47;12.00;99.90
37754;DHT22;23596;52.520;13.464;2022-09-17T04:09:13;11.90;99.90
37754;DHT22;23596;52.520;13.464;2022-09-17T04:11:39;11.90;99.90
37754;DHT22;23596;52.520;13.464;2022-09-17T04:14:04;11.90;99.90
37754;DHT22;23596;52.520;13.464;2022-09-17T04:16:30;11.90;99.90
37754;DHT22;23596;52.520;13.464;2022-09-17T04:18:55;12.00;99.90
37754;DHT22;23596;52.520;13.464;2022-09-17T04:21:21;11.90;99.90
37754;DHT22;23596;52.520;13.464;2022-09-17T04:23:47;11.90;99.90
37754;DHT22;23596;52.520;13.464;2022-09-17T04:26:12;11.90;99.90
37754;DHT22;23596;52.520;13.464;2022-09-17T04:28:38;11.90;99.90
37754;DHT22;23596;52.520;13.464;2022-09-17T04:31:03;11.90;99.90
37754;DHT22;23596;52.520;13.464;2022-09-17T04:33:29;11.90;99.90
37754;DHT22;23596;52.520;13.464;2022-09-17T04:35:54;11.90;99.90
37754;DHT22;23596;52.520;13.464;2022-09-17T04:38:20;11.90;99.90
37754;DHT22;23596;52.520;13.464;2022-09-17T04:40:46;12.00;99.90
37754;DHT22;23596;52.520;13.464;2022-09-17T04:43:12;11.90;99.90
37754;DHT22;23596;52.520;13.464;2022-09-17T04:45:38;11.90;99.90
37754;DHT22;23596;52.520;13.464;2022-09-17T04:48:04;12.00;99.90
37754;DHT22;23596;52.520;13.464;2022-09-17T04:50:29;12.00;99.90
37754;DHT22;23596;52.520;13.464;2022-09-17T04:52:55;12.00;99.90
37754;DHT22;23596;52.520;13.464;2022-09-17T04:55:21;12.00;99.90
37754;DHT22;23596;52.520;13.464;2022-09-17T04:57:51;12.00;99.90
37754;DHT22;23596;52.520;13.464;2022-09-17T05:00:19;12.00;99.90
37754;DHT22;23596;52.520;13.464;2022-09-17T05:02:47;12.00;99.90
37754;DHT22;23596;52.520;13.464;2022-09-17T05:05:13;12.10;99.90
37754;DHT22;23596;52.520;13.464;2022-09-17T05:07:40;12.10;99.90
37754;DHT22;23596;52.520;13.464;2022-09-17T05:10:06;12.00;99.90
37754;DHT22;23596;52.520;13.464;2022-09-17T05:12:32;12.10;99.90
37754;DHT22;23596;52.520;13.464;2022-09-17T05:14:58;12.70;99.90
37754;DHT22;23596;52.520;13.464;2022-09-17T05:17:23;12.10;99.90
37754;DHT22;23596;52.520;13.464;2022-09-17T05:19:49;12.10;99.90
37754;DHT22;23596;52.520;13.464;2022-09-17T05:22:14;12.10;99.90
37754;DHT22;23596;52.520;13.464;2022-09-17T05:24:40;12.20;99.90
37754;DHT22;23596;52.520;13.464;2022-09-17T05:27:07;12.20;99.90
37754;DHT22;23596;52.520;13.464;2022-09-17T05:29:33;12.20;99.90
37754;DHT22;23596;52.520;13.464;2022-09-17T05:31:58;15.10;99.90
37754;DHT22;23596;52.520;13.464;2022-09-17T05:34:24;12.20;99.90
37754;DHT22;23596;52.520;13.464;2022-09-17T05:36:49;12.20;99.90
37754;DHT22;23596;52.520;13.464;2022-09-17T05:39:15;12.20;99.90
37754;DHT22;23596;52.520;13.464;2022-09-17T05:41:41;12.20;99.90
37754;DHT22;23596;52.520;13.464;2022-09-17T05:44:07;12.30;99.90
37754;DHT22;23596;52.520;13.464;2022-09-17T05:46:32;12.30;99.90
37754;DHT22;23596;52.520;13.464;2022-09-17T05:48:58;12.30;99.90
37754;DHT22;23596;52.520;13.464;2022-09-17T05:51:23;12.30;99.90
37754;DHT22;23596;52.520;13.464;2022-09-17T05:53:49;12.30;99.90
37754;DHT22;23596;52.520;13.464;2022-09-17T05:56:14;12.30;99.90
37754;DHT22;23596;52.520;13.464;2022-09-17T05:58:40;12.40;99.90
37754;DHT22;23596;52.520;13.464;2022-09-17T06:01:06;12.40;99.90
37754;DHT22;23596;52.520;13.464;2022-09-17T06:03:31;12.40;99.90
37754;DHT22;23596;52.520;13.464;2022-09-17T06:05:58;12.40;99.90
37754;DHT22;23596;52.520;13.464;2022-09-17T06:08:26;12.40;99.90
37754;DHT22;23596;52.520;13.464;2022-09-17T06:10:52;12.40;99.90
37754;DHT22;23596;52.520;13.464;2022-09-17T06:13:18;12.40;99.90
37754;DHT22;23596;52.520;13.464;2022-09-17T06:15:51;12.40;99.90
37754;DHT22;23596;52.520;13.464;2022-09-17T06:18:18;12.40;99.90
37754;DHT22;23596;52.520;13.464;2022-09-17T06:20:57;12.40;99.90
37754;DHT22;23596;52.520;13.464;2022-09-17T06:23:24;12.40;99.90
37754;DHT22;23596;52.520;13.464;2022-09-17T06:25:58;12.40;99.90
37754;DHT22;23596;52.520;13.464;2022-09-17T06:28:25;12.40;99.90
37754;DHT22;23596;52.520;13.464;2022-09-17T06:30:51;12.40;99.90
37754;DHT22;23596;52.520;13.464;2022-09-17T06:33:19;12.40;99.90
37754;DHT22;23596;52.520;13.464;2022-09-17T06:35:45;12.40;99.90
37754;DHT22;23596;52.520;13.464;2022-09-17T06:38:10;12.40;99.90
37754;DHT22;23596;52.520;13.464;2022-09-17T06:40:36;12.40;99.90
37754;DHT22;23596;52.520;13.464;2022-09-17T06:43:02;12.40;99.90
37754;DHT22;23596;52.520;13.464;2022-09-17T06:45:27;12.60;99.90
37754;DHT22;23596;52.520;13.464;2022-09-17T06:47:53;12.50;99.90
37754;DHT22;23596;52.520;13.464;2022-09-17T06:50:19;12.50;99.90
37754;DHT22;23596;52.520;13.464;2022-09-17T06:52:52;12.50;99.90
37754;DHT22;23596;52.520;13.464;2022-09-17T06:55:18;12.60;99.90
37754;DHT22;23596;52.520;13.464;2022-09-17T06:57:44;12.60;99.90
37754;DHT22;23596;52.520;13.464;2022-09-17T07:00:10;12.60;99.90
37754;DHT22;23596;52.520;13.464;2022-09-17T07:02:36;12.60;99.90
37754;DHT22;23596;52.520;13.464;2022-09-17T07:05:03;12.60;99.90
37754;DHT22;23596;52.520;13.464;2022-09-17T07:07:29;12.60;99.90
37754;DHT22;23596;52.520;13.464;2022-09-17T07:09:55;12.50;99.90
37754;DHT22;23596;52.520;13.464;2022-09-17T07:12:20;12.50;99.90
37754;DHT22;23596;52.520;13.464;2022-09-17T07:14:46;12.50;99.90
37754;DHT22;23596;52.520;13.464;2022-09-17T07:17:13;12.50;99.90
37754;DHT22;23596;52.520;13.464;2022-09-17T07:19:39;12.50;99.90
37754;DHT22;23596;52.520;13.464;2022-09-17T07:22:04;12.40;99.90
37754;DHT22;23596;52.520;13.464;2022-09-17T07:24:30;12.40;99.90
37754;DHT22;23596;52.520;13.464;2022-09-17T07:26:55;12.50;99.90
37754;DHT22;23596;52.520;13.464;2022-09-17T07:29:21;12.50;99.90
37754;DHT22;23596;52.520;13.464;2022-09-17T07:31:50;12.00;99.90
37754;DHT22;23596;52.520;13.464;2022-09-17T07:34:16;12.50;99.90
37754;DHT22;23596;52.520;13.464;2022-09-17T07:36:42;12.60;99.90
37754;DHT22;23596;52.520;13.464;2022-09-17T07:39:08;12.60;99.90
37754;DHT22;23596;52.520;13.464;2022-09-17T07:41:35;12.60;99.90
37754;DHT22;23596;52.520;13.464;2022-09-17T07:44:00;12.60;99.90
37754;DHT22;23596;52.520;13.464;2022-09-17T07:46:27;12.60;99.90
37754;DHT22;23596;52.520;13.464;2022-09-17T07:48:52;12.70;99.90
37754;DHT22;23596;52.520;13.464;2022-09-17T07:51:20;12.70;99.90
37754;DHT22;23596;52.520;13.464;2022-09-17T07:53:46;12.70;99.90
37754;DHT22;23596;52.520;13.464;2022-09-17T07:56:14;12.70;99.90
37754;DHT22;23596;52.520;13.464;2022-09-17T07:58:41;13.00;99.90
37754;DHT22;23596;52.520;13.464;2022-09-17T08:01:09;12.80;99.90
37754;DHT22;23596;52.520;13.464;2022-09-17T08:03:35;12.80;99.90
37754;DHT22;23596;52.520;13.464;2022-09-17T08:06:09;12.80;99.90
37754;DHT22;23596;52.520;13.464;2022-09-17T08:08:36;12.80;99.90
37754;DHT22;23596;52.520;13.464;2022-09-17T08:11:04;12.80;99.90
37754;DHT22;23596;52.520;13.464;2022-09-17T08:13:30;12.80;99.90
37754;DHT22;23596;52.520;13.464;2022-09-17T08:16:00;12.90;99.90
37754;DHT22;23596;52.520;13.464;2022-09-17T08:18:26;13.00;99.90
37754;DHT22;23596;52.520;13.464;2022-09-17T08:20:56;13.00;99.90
37754;DHT22;23596;52.520;13.464;2022-09-17T08:23:22;13.00;99.90
37754;DHT22;23596;52.520;13.464;2022-09-17T08:25:55;13.00;99.90
37754;DHT22;23596;52.520;13.464;2022-09-17T08:28:22;13.00;99.90
37754;DHT22;23596;52.520;13.464;2022-09-17T08:30:50;13.10;99.90
37754;DHT22;23596;52.520;13.464;2022-09-17T08:33:16;13.10;99.90
37754;DHT22;23596;52.520;13.464;2022-09-17T08:35:49;13.20;99.90
37754;DHT22;23596;52.520;13.464;2022-09-17T08:38:15;13.20;99.90
37754;DHT22;23596;52.520;13.464;2022-09-17T08:43:29;13.30;99.90
37754;DHT22;23596;52.520;13.464;2022-09-17T08:45:58;13.30;99.90
37754;DHT22;23596;52.520;13.464;2022-09-17T08:48:34;13.40;99.90
37754;DHT22;23596;52.520;13.464;2022-09-17T08:51:10;13.40;99.90
37754;DHT22;23596;52.520;13.464;2022-09-17T08:53:55;13.50;99.90
37754;DHT22;23596;52.520;13.464;2022-09-17T08:56:26;13.40;99.90
37754;DHT22;23596;52.520;13.464;2022-09-17T08:59:15;13.40;99.90
37754;DHT22;23596;52.520;13.464;2022-09-17T09:01:58;13.50;99.90
37754;DHT22;23596;52.520;13.464;2022-09-17T09:09:31;13.60;99.90
37754;DHT22;23596;52.520;13.464;2022-09-17T09:12:23;13.60;99.90
37754;DHT22;23596;52.520;13.464;2022-09-17T09:14:54;13.60;99.90
37754;DHT22;23596;52.520;13.464;2022-09-17T09:17:27;13.60;99.90
37754;DHT22;23596;52.520;13.464;2022-09-17T09:19:53;13.70;99.90
37754;DHT22;23596;52.520;13.464;2022-09-17T09:22:46;13.70;99.90
37754;DHT22;23596;52.520;13.464;2022-09-17T09:25:19;13.70;99.90
37754;DHT22;23596;52.520;13.464;2022-09-17T09:28:10;13.70;99.90
37754;DHT22;23596;52.520;13.464;2022-09-17T09:33:16;13.80;99.90
37754;DHT22;23596;52.520;13.464;2022-09-17T09:35:43;13.90;99.90
37754;DHT22;23596;52.520;13.464;2022-09-17T09:41:03;14.00;99.90
37754;DHT22;23596;52.520;13.464;2022-09-17T09:43:45;14.00;99.90
37754;DHT22;23596;52.520;13.464;2022-09-17T09:54:05;14.20;99.90
37754;DHT22;23596;52.520;13.464;2022-09-17T09:59:13;14.20;99.90
37754;DHT22;23596;52.520;13.464;2022-09-17T10:01:41;14.20;99.90
37754;DHT22;23596;52.520;13.464;2022-09-17T10:04:27;14.10;99.90
37754;DHT22;23596;52.520;13.464;2022-09-17T10:07:00;14.20;99.90
37754;DHT22;23596;52.520;13.464;2022-09-17T10:09:27;14.20;99.90
37754;DHT22;23596;52.520;13.464;2022-09-17T10:12:18;14.20;99.90
37754;DHT22;23596;52.520;13.464;2022-09-17T10:14:45;14.40;99.90
37754;DHT22;23596;52.520;13.464;2022-09-17T10:17:18;14.40;99.90
37754;DHT22;23596;52.520;13.464;2022-09-17T10:20:07;14.50;99.90
37754;DHT22;23596;52.520;13.464;2022-09-17T10:22:46;14.60;99.90
37754;DHT22;23596;52.520;13.464;2022-09-17T10:25:32;14.60;99.90
37754;DHT22;23596;52.520;13.464;2022-09-17T10:28:01;14.60;99.90
37754;DHT22;23596;52.520;13.464;2022-09-17T10:30:28;14.60;99.90
37754;DHT22;23596;52.520;13.464;2022-09-17T10:33:20;14.70;99.90
37754;DHT22;23596;52.520;13.464;2022-09-17T10:38:29;14.80;99.90
37754;DHT22;23596;52.520;13.464;2022-09-17T10:43:37;14.70;99.90
37754;DHT22;23596;52.520;13.464;2022-09-17T10:46:03;14.60;99.90
37754;DHT22;23596;52.520;13.464;2022-09-17T10:48:37;14.10;99.90
37754;DHT22;23596;52.520;13.464;2022-09-17T10:51:04;13.70;99.90
37754;DHT22;23596;52.520;13.464;2022-09-17T10:53:51;13.50;99.90
37754;DHT22;23596;52.520;13.464;2022-09-17T10:56:30;13.30;99.90
37754;DHT22;23596;52.520;13.464;2022-09-17T11:10:19;13.30;99.90
37754;DHT22;23596;52.520;13.464;2022-09-17T11:13:03;13.40;99.90
37754;DHT22;23596;52.520;13.464;2022-09-17T11:16:28;13.50;99.90
37754;DHT22;23596;52.520;13.464;2022-09-17T11:18:38;13.50;99.90
37754;DHT22;23596;52.520;13.464;2022-09-17T11:30:07;14.10;99.90
37754;DHT22;23596;52.520;13.464;2022-09-17T11:32:53;14.20;99.90
37754;DHT22;23596;52.520;13.464;2022-09-17T11:35:25;14.30;99.90
37754;DHT22;23596;52.520;13.464;2022-09-17T11:38:17;14.40;99.90
37754;DHT22;23596;52.520;13.464;2022-09-17T11:41:00;14.40;99.90
37754;DHT22;23596;52.520;13.464;2022-09-17T11:43:30;14.40;99.90
37754;DHT22;23596;52.520;13.464;2022-09-17T11:46:00;14.40;99.90
37754;DHT22;23596;52.520;13.464;2022-09-17T11:48:38;14.50;99.90
37754;DHT22;23596;52.520;13.464;2022-09-17T11:54:28;14.20;99.90
37754;DHT22;23596;52.520;13.464;2022-09-17T11:57:10;14.00;99.90
37754;DHT22;23596;52.520;13.464;2022-09-17T11:59:55;13.90;99.90
37754;DHT22;23596;52.520;13.464;2022-09-17T12:02:32;13.90;99.90
37754;DHT22;23596;52.520;13.464;2022-09-17T12:08:07;14.30;99.90
37754;DHT22;23596;52.520;13.464;2022-09-17T12:13:56;14.60;99.90
37754;DHT22;23596;52.520;13.464;2022-09-17T12:19:18;15.10;99.90
37754;DHT22;23596;52.520;13.464;2022-09-17T12:21:59;15.30;99.90
37754;DHT22;23596;52.520;13.464;2022-09-17T12:24:26;15.40;99.90
37754;DHT22;23596;52.520;13.464;2022-09-17T12:27:16;15.30;99.90
37754;DHT22;23596;52.520;13.464;2022-09-17T12:35:39;15.00;99.90
37754;DHT22;23596;52.520;13.464;2022-09-17T12:44:05;15.70;99.90
37754;DHT22;23596;52.520;13.464;2022-09-17T12:46:58;16.10;99.90
37754;DHT22;23596;52.520;13.464;2022-09-17T12:50:03;16.10;99.90
37754;DHT22;23596;52.520;13.464;2022-09-17T13:04:05;17.10;99.90
37754;DHT22;23596;52.520;13.464;2022-09-17T13:10:02;16.70;99.90
37754;DHT22;23596;52.520;13.464;2022-09-17T13:17:50;15.90;99.90
37754;DHT22;23596;52.520;13.464;2022-09-17T13:20:21;15.80;99.90
37754;DHT22;23596;52.520;13.464;2022-09-17T13:22:51;15.90;99.90
37754;DHT22;23596;52.520;13.464;2022-09-17T13:25:19;16.10;99.90
37754;DHT22;23596;52.520;13.464;2022-09-17T13:27:49;16.50;99.90
37754;DHT22;23596;52.520;13.464;2022-09-17T13:30:17;16.90;99.90
37754;DHT22;23596;52.520;13.464;2022-09-17T13:32:44;17.20;99.90
37754;DHT22;23596;52.520;13.464;2022-09-17T13:42:51;18.00;99.90
37754;DHT22;23596;52.520;13.464;2022-09-17T13:45:20;18.20;99.90
37754;DHT22;23596;52.520;13.464;2022-09-17T13:47:53;18.30;99.90
37754;DHT22;23596;52.520;13.464;2022-09-17T13:50:36;18.60;99.90
37754;DHT22;23596;52.520;13.464;2022-09-17T13:53:07;18.90;99.90
37754;DHT22;23596;52.520;13.464;2022-09-17T13:55:42;19.00;99.90
37754;DHT22;23596;52.520;13.464;2022-09-17T13:58:29;19.20;99.90
37754;DHT22;23596;52.520;13.464;2022-09-17T14:01:09;19.80;98.90
37754;DHT22;23596;52.520;13.464;2022-09-17T14:13:57;19.20;98.20
37754;DHT22;23596;52.520;13.464;2022-09-17T14:21:42;18.10;99.80
37754;DHT22;23596;52.520;13.464;2022-09-17T14:24:21;17.90;99.90
37754;DHT22;23596;52.520;13.464;2022-09-17T14:32:50;20.10;97.10
37754;DHT22;23596;52.520;13.464;2022-09-17T14:35:39;20.70;96.30
37754;DHT22;23596;52.520;13.464;2022-09-17T14:40:34;20.30;95.90
37754;DHT22;23596;52.520;13.464;2022-09-17T14:43:01;19.40;97.00
37754;DHT22;23596;52.520;13.464;2022-09-17T14:45:31;18.60;97.80
37754;DHT22;23596;52.520;13.464;2022-09-17T14:48:16;18.10;99.20
37754;DHT22;23596;52.520;13.464;2022-09-17T14:50:42;17.50;99.50
37754;DHT22;23596;52.520;13.464;2022-09-17T14:53:17;17.00;99.90
37754;DHT22;23596;52.520;13.464;2022-09-17T14:55:46;16.60;99.90
37754;DHT22;23596;52.520;13.464;2022-09-17T14:58:41;16.70;99.90
37754;DHT22;23596;52.520;13.464;2022-09-17T15:01:28;16.80;99.90
37754;DHT22;23596;52.520;13.464;2022-09-17T15:04:17;16.80;99.90
37754;DHT22;23596;52.520;13.464;2022-09-17T15:06:44;16.80;99.90
37754;DHT22;23596;52.520;13.464;2022-09-17T15:09:28;16.90;99.90
37754;DHT22;23596;52.520;13.464;2022-09-17T15:11:55;17.00;99.90
37754;DHT22;23596;52.520;13.464;2022-09-17T15:14:28;17.80;99.90
37754;DHT22;23596;52.520;13.464;2022-09-17T15:16:55;18.10;98.50
37754;DHT22;23596;52.520;13.464;2022-09-17T15:21:56;19.30;97.40
37754;DHT22;23596;52.520;13.464;2022-09-17T15:24:33;19.70;96.30
37754;DHT22;23596;52.520;13.464;2022-09-17T15:27:13;19.90;96.10
37754;DHT22;23596;52.520;13.464;2022-09-17T15:29:45;20.20;95.90
37754;DHT22;23596;52.520;13.464;2022-09-17T15:32:12;20.40;95.80
37754;DHT22;23596;52.520;13.464;2022-09-17T15:34:39;20.60;95.80
37754;DHT22;23596;52.520;13.464;2022-09-17T15:37:19;20.60;94.90
37754;DHT22;23596;52.520;13.464;2022-09-17T15:39:50;20.50;94.80
37754;DHT22;23596;52.520;13.464;2022-09-17T15:42:29;20.10;94.90
37754;DHT22;23596;52.520;13.464;2022-09-17T15:50:21;19.90;95.20
37754;DHT22;23596;52.520;13.464;2022-09-17T15:52:49;19.20;95.40
37754;DHT22;23596;52.520;13.464;2022-09-17T15:55:34;18.60;96.20
37754;DHT22;23596;52.520;13.464;2022-09-17T15:58:02;18.30;96.60
37754;DHT22;23596;52.520;13.464;2022-09-17T16:00:28;17.80;97.30
37754;DHT22;23596;52.520;13.464;2022-09-17T16:02:54;17.40;97.70
37754;DHT22;23596;52.520;13.464;2022-09-17T16:07:48;16.70;98.10
37754;DHT22;23596;52.520;13.464;2022-09-17T16:10:14;16.40;98.60
37754;DHT22;23596;52.520;13.464;2022-09-17T16:12:40;16.30;99.30
37754;DHT22;23596;52.520;13.464;2022-09-17T16:15:06;16.70;99.70
37754;DHT22;23596;52.520;13.464;2022-09-17T16:20:13;15.80;99.90
37754;DHT22;23596;52.520;13.464;2022-09-17T16:22:40;15.60;99.90
37754;DHT22;23596;52.520;13.464;2022-09-17T16:25:06;15.40;99.90
37754;DHT22;23596;52.520;13.464;2022-09-17T16:27:38;15.20;99.90
37754;DHT22;23596;52.520;13.464;2022-09-17T16:30:07;15.00;99.90
37754;DHT22;23596;52.520;13.464;2022-09-17T16:32:34;14.90;99.90
37754;DHT22;23596;52.520;13.464;2022-09-17T16:34:59;14.80;99.90
37754;DHT22;23596;52.520;13.464;2022-09-17T16:37:25;14.50;99.90
37754;DHT22;23596;52.520;13.464;2022-09-17T16:39:50;14.30;99.90
37754;DHT22;23596;52.520;13.464;2022-09-17T16:42:17;14.10;99.90
37754;DHT22;23596;52.520;13.464;2022-09-17T16:44:43;14.50;99.90
37754;DHT22;23596;52.520;13.464;2022-09-17T16:47:08;13.90;99.90
37754;DHT22;23596;52.520;13.464;2022-09-17T16:49:34;13.90;99.90
37754;DHT22;23596;52.520;13.464;2022-09-17T16:51:59;13.80;99.90
37754;DHT22;23596;52.520;13.464;2022-09-17T16:54:25;13.70;99.90
37754;DHT22;23596;52.520;13.464;2022-09-17T16:56:50;13.60;99.90
37754;DHT22;23596;52.520;13.464;2022-09-17T16:59:16;13.60;99.90
37754;DHT22;23596;52.520;13.464;2022-09-17T17:01:41;13.50;99.90
37754;DHT22;23596;52.520;13.464;2022-09-17T17:04:07;13.50;99.90
37754;DHT22;23596;52.520;13.464;2022-09-17T17:06:33;13.50;99.90
37754;DHT22;23596;52.520;13.464;2022-09-17T17:08:59;13.50;99.90
37754;DHT22;23596;52.520;13.464;2022-09-17T17:11:25;13.50;99.90
37754;DHT22;23596;52.520;13.464;2022-09-17T17:13:52;13.50;99.90
37754;DHT22;23596;52.520;13.464;2022-09-17T17:16:20;13.40;99.90
37754;DHT22;23596;52.520;13.464;2022-09-17T17:18:45;13.40;99.90
37754;DHT22;23596;52.520;13.464;2022-09-17T17:21:12;14.10;99.90
37754;DHT22;23596;52.520;13.464;2022-09-17T17:23:38;13.40;99.90
37754;DHT22;23596;52.520;13.464;2022-09-17T17:26:04;13.30;99.90
37754;DHT22;23596;52.520;13.464;2022-09-17T17:28:33;13.30;99.90
37754;DHT22;23596;52.520;13.464;2022-09-17T17:31:00;13.90;99.90
37754;DHT22;23596;52.520;13.464;2022-09-17T17:33:25;13.20;99.90
37754;DHT22;23596;52.520;13.464;2022-09-17T17:35:51;13.20;99.90
37754;DHT22;23596;52.520;13.464;2022-09-17T17:38:17;13.20;99.90
37754;DHT22;23596;52.520;13.464;2022-09-17T17:40:43;14.10;99.90
37754;DHT22;23596;52.520;13.464;2022-09-17T17:43:10;13.10;99.90
37754;DHT22;23596;52.520;13.464;2022-09-17T17:45:35;13.10;99.90
37754;DHT22;23596;52.520;13.464;2022-09-17T17:48:01;13.10;99.90
37754;DHT22;23596;52.520;13.464;2022-09-17T17:50:26;13.10;99.90
37754;DHT22;23596;52.520;13.464;2022-09-17T17:52:55;13.10;99.90
37754;DHT22;23596;52.520;13.464;2022-09-17T17:55:21;13.10;99.90
37754;DHT22;23596;52.520;13.464;2022-09-17T17:57:46;13.10;99.90
37754;DHT22;23596;52.520;13.464;2022-09-17T18:00:12;13.10;99.90
37754;DHT22;23596;52.520;13.464;2022-09-17T18:02:39;13.10;99.90
37754;DHT22;23596;52.520;13.464;2022-09-17T18:05:05;13.10;99.90
37754;DHT22;23596;52.520;13.464;2022-09-17T18:07:31;13.00;99.90
37754;DHT22;23596;52.520;13.464;2022-09-17T18:09:57;13.00;99.90
37754;DHT22;23596;52.520;13.464;2022-09-17T18:12:23;13.00;99.90
37754;DHT22;23596;52.520;13.464;2022-09-17T18:14:49;12.90;99.90
37754;DHT22;23596;52.520;13.464;2022-09-17T18:17:14;12.80;99.90
37754;DHT22;23596;52.520;13.464;2022-09-17T18:19:40;12.70;99.90
37754;DHT22;23596;52.520;13.464;2022-09-17T18:22:05;12.70;99.90
37754;DHT22;23596;52.520;13.464;2022-09-17T18:24:31;12.60;99.90
37754;DHT22;23596;52.520;13.464;2022-09-17T18:26:56;12.50;99.90
37754;DHT22;23596;52.520;13.464;2022-09-17T18:29:22;12.60;99.90
37754;DHT22;23596;52.520;13.464;2022-09-17T18:31:47;12.60;99.90
37754;DHT22;23596;52.520;13.464;2022-09-17T18:34:14;12.50;99.90
37754;DHT22;23596;52.520;13.464;2022-09-17T18:36:41;12.50;99.90